Chatham, MI (49816)

10:18 AM EDT on August 04, 2015 (GMT -0400)
APRSWXNET | | Change Station
CLOSE
Current Station
Personal Weather Station
Location: Eben Junction, MI
Elevation: 887 ft
Nearby Weather Stations

Elev 887 ft 46.34 °N, 86.93 °W | Updated 28 minutes ago

Overcast
Overcast
60 °F
Feels Like 60 °F
N
0
Wind Variable Wind from North
Gusts 2.0 mph

Today
High -- | Low -- °F
--% Chance of Precip.
Yesterday
High -- | Low -- °F
Precip. -- in
6:31 AM 9:13 PM
Waning Gibbous, 77% visible
Pressure 29.89 in
Visibility 10.0 miles
Clouds Mostly Cloudy 1600 ft
Mostly Cloudy 2900 ft
Overcast 5500 ft
Dew Point 55 °F
Humidity 85%
Rainfall in
Snow Depth Not available.
UV 1 out of 12
Pollen 7.20 out of 12
Air Quality Not available.
Flu Activity Not available.
METAR KSAW 041345Z 30005KT 10SM BKN016 BKN029 OVC055 16/12 A2989

More Conditions Fewer Conditions

Pressure 29.89 in
Visibility 10.0 miles
Clouds Mostly Cloudy 1600 ft
Mostly Cloudy 2900 ft
Overcast 5500 ft
Dew Point 55 °F
Humidity 85%
Rainfall in
Snow Depth Not available.
UV 1 out of 12
Pollen 7.20 out of 12
Air Quality Not available.
Flu Activity Not available.
METAR KSAW 041345Z 30005KT 10SM BKN016 BKN029 OVC055 16/12 A2989

More Conditions Fewer Conditions

10-Day Weather Forecast

×

Almanac

Astronomy

Aug. 04, 2015 Rise Set
Actual Time
Civil Twilight
Nautical Twilight
Astronomical Twilight
Moon
Length of Visible Light
Length of Day
Tomorrow will be .
, % of the Moon is Illuminated

Today's Extremes

State Highs State Lows

Community

WunderPhotos

Upload Photos

1,843,916 photos uploaded!

WunderBlogs® & News

Nearby

Air Quality

  Air Quality AQ Index Pollutant
Not available.

Snow Depth

Station Depth Elevation

Earthquake Activity

City Distance Mag. Time & Date
Minimum magnitude displayed is 2.5.

Coastal Water Temperatures

Place Temperature

Stations

Nearby Weather Stations

Station Location Temp. Windchill Dew Point Humidity Wind Precip. Elev Updated Type